INFORMACIÓN METAR y TAF
METAR FOR MZBZ
ADDS - METARS form results

(0426 UTC 27 October 2021)
Data provider http://aviationweather.gov/metar/data/
 
Forecast for: MZBZ (BELIZE INTL , BZ)
Text: TAF MZBZ 270300Z 2706/2806 11008KT 9999 FEW023
Forecast period: 0600 UTC 27 October 2021 to 0600 UTC 28 October 2021
Forecast type: FROM: standard forecast or significant change
Winds: from the ESE (110 degrees) at 9 MPH (8 knots; 4.1 m/s)
Visibility: 6 or more miles (10+ km)
Ceiling: at least 12,000 feet AGL
Clouds: few clouds at 2300 feet AGL
Weather: no significant weather forecast for this period

 MAPA DE AEROPUERTO

 INFORMACIÓN DE PISTA